Amado, AZ (85640)

7:38 AM MST on August 25, 2016 (GMT -0700)
Elephant Head | | Change Station

Elev 3155 ft 31.74 °N, 111.01 °W | Updated 1 second ago

Clear
Clear
74.3 °F
Feels Like 77 °F
N
1.6
Wind Variable Wind from SW
Gusts 2.5 mph

Today
High -- | Low -- °F
--% Chance of Precip.
Yesterday
High -- | Low -- °F
Precip. -- in
Pressure 29.97 in
Visibility 10.0 miles
Clouds Clear
Heat Index 77 °F
Dew Point 58 °F
Humidity 56%
Rainfall 0.00 in
Snow Depth Not available.
5:55 AM 6:55 PM
Last Quarter, 45% visible
METAR KOLS 251354Z AUTO 00000KT 10SM CLR 18/11 A3015 RMK AO2 SLP149 T01830106
Pressure 29.97 in
Visibility 10.0 miles
Clouds Clear
Heat Index 77 °F
Dew Point 58 °F
Humidity 56%
Rainfall 0.00 in
Snow Depth Not available.
5:55 AM 6:55 PM
Last Quarter, 45% visible
METAR KOLS 251354Z AUTO 00000KT 10SM CLR 18/11 A3015 RMK AO2 SLP149 T01830106

10-Day Weather Forecast

Almanac

Astronomy

Aug. 25, 2016 Rise Set
Actual Time
Civil Twilight
Nautical Twilight
Astronomical Twilight
Moon
Length of Visible Light
Length of Day
Tomorrow will be .
, % of the Moon is Illuminated

Today's Extremes

State Highs State Lows

Community

WunderPhotos

Upload Photos

1,934,849 photos uploaded!

WunderBlog® & News

Nearby

Air Quality

  Air Quality AQ Index Pollutant
Not available.

Snow Depth

Station Depth Elevation

Earthquake Activity

City Distance Mag. Time & Date
Minimum magnitude displayed is 2.5.

Coastal Water Temperatures

Place Temperature

Stations

Nearby Weather Stations

Station Location Temp. Windchill Dew Point Humidity Wind Precip. Elev Updated Type
                   

Watches & Warnings

There are currently no watches in effect.